EICK

Cork Airport

Airport
ICAO code
EICK
IATA Code
ORK
Summary
ICAO Region
EUR
ICAO Territory
Location

Cork, County Cork

Serving
Cork
Elevation
502 ft
Coordinates
51° 50' 29" N , 8° 29' 28" W
KCC
Metar
Observation
EICK 291700Z 15011KT 9999 FEW021 BKN025 BKN080 08/06 Q1016 NOSIG
Station
Cork Airport
Date/Time
2022-11-29 17:00:00
Wind direction
150°
Wind speed
11 kts
Lowest cloud amount
few clouds
Temperature
8°C
Dew point
6°C
Humidity
87%
QNH
1016 hPa
Weather condition
n/a

Description

International airport serving Cork.

Climatology

Temperate Marine climate/Oceanic climate (Köppen climate classification Cfb). Moderately cool summer and comparatively warm winter with a temperature range of only 14°C. Prevailing south-westerly winds from the Atlantic Ocean.

Runways

Designator Length Width Surface Rops
7/25 1310 45 PEM Yes/Yes
17/35 2133 45 ASP Yes/Yes

SKYbrary Partners:

Safety knowledge contributed by: